Time;durP1;ratioP1;P1;durP2;ratioP2;P2;SDS_P1;SDS_P2;PMS_P1;PMS_P2;Temp;Humidity;BMP_temperature;BMP_pressure;BME280_temperature;BME280_humidity;BME280_pressure;Samples;Min_cycle;Max_cycle;Signal;HPM_P1;HPM_P2
2023/02/28 00:02:24;;;;;;;;;;;;;;;-0.56;nan;101517.38;5010274;28;19913;-86
2023/02/28 00:04:52;;;;;;;;;;;;;;;-0.58;nan;101516.56;4993343;28;19924;-84
2023/02/28 00:07:18;;;;;;;;;;;;;;;-0.62;nan;101513.25;4993283;28;19918;-85
2023/02/28 00:09:43;;;;;;;;;;;;;;;-0.62;nan;101518.44;4993429;28;19917;-85
2023/02/28 00:12:09;;;;;;;;;;;;;;;-0.58;nan;101513.97;5008978;28;19921;-86
2023/02/28 00:14:35;;;;;;;;;;;;;;;-0.60;nan;101513.19;5004159;28;19996;-86
2023/02/28 00:17:00;;;;;;;;;;;;;;;-0.65;nan;101510.75;4991949;28;20591;-84
2023/02/28 00:19:25;;;;;;;;;;;;;;;-0.65;nan;101516.78;4992607;28;19923;-85
2023/02/28 00:21:50;;;;;;;;;;;;;;;-0.64;nan;101517.66;4993735;28;19925;-84
2023/02/28 00:24:16;;;;;;;;;;;;;;;-0.67;nan;101517.75;5013115;28;19917;-84
2023/02/28 00:26:41;;;;;;;;;;;;;;;-0.74;nan;101517.13;4996813;28;20543;-85
2023/02/28 00:29:06;;;;;;;;;;;;;;;-0.78;nan;101518.16;5013287;28;19918;-84
2023/02/28 00:31:31;;;;;;;;;;;;;;;-0.83;nan;101516.59;5003784;28;20561;-85
2023/02/28 00:33:56;;;;;;;;;;;;;;;-0.86;nan;101520.16;5005288;28;20004;-84
2023/02/28 00:36:21;;;;;;;;;;;;;;;-0.87;nan;101513.28;4995654;28;19949;-84
2023/02/28 00:38:47;;;;;;;;;;;;;;;-0.90;nan;101510.78;4997203;28;19979;-84
2023/02/28 00:41:12;;;;;;;;;;;;;;;-0.90;nan;101522.03;4996372;28;20452;-84
2023/02/28 00:43:38;;;;;;;;;;;;;;;-0.90;nan;101521.19;5010487;28;19917;-84
2023/02/28 00:46:03;;;;;;;;;;;;;;;-0.95;nan;101518.75;4995585;28;19944;-84
2023/02/28 00:48:28;;;;;;;;;;;;;;;-0.98;nan;101520.56;5006128;28;20430;-83
2023/02/28 00:50:53;;;;;;;;;;;;;;;-0.99;nan;101526.69;5010856;28;19917;-84
2023/02/28 00:53:19;;;;;;;;;;;;;;;-1.02;nan;101519.84;4996194;28;20313;-83
2023/02/28 00:55:44;;;;;;;;;;;;;;;-1.03;nan;101515.53;4994514;28;19940;-84
2023/02/28 00:58:09;;;;;;;;;;;;;;;-1.07;nan;101514.81;4992384;28;20421;-84
2023/02/28 01:00:34;;;;;;;;;;;;;;;-1.04;nan;101518.22;5006141;28;19925;-83
2023/02/28 01:02:59;;;;;;;;;;;;;;;-1.03;nan;101515.53;5008496;28;20267;-83
2023/02/28 01:05:25;;;;;;;;;;;;;;;-1.04;nan;101520.81;4995561;28;19993;-84
2023/02/28 01:07:50;;;;;;;;;;;;;;;-1.02;nan;101524.22;5012235;28;19924;-84
2023/02/28 01:10:15;;;;;;;;;;;;;;;-1.06;nan;101518.25;4992488;28;19992;-83
2023/02/28 01:12:40;;;;;;;;;;;;;;;-1.05;nan;101508.72;5008437;28;20310;-84
2023/02/28 01:15:06;;;;;;;;;;;;;;;-1.06;nan;101513.06;5010798;28;20522;-84
2023/02/28 01:17:31;;;;;;;;;;;;;;;-1.10;nan;101514.94;4996311;28;19968;-84
2023/02/28 01:19:56;;;;;;;;;;;;;;;-1.10;nan;101514.94;4995540;28;19937;-83
2023/02/28 01:22:21;;;;;;;;;;;;;;;-1.12;nan;101514.13;4991190;28;20282;-84
2023/02/28 01:24:47;;;;;;;;;;;;;;;-1.17;nan;101512.56;5009388;28;19990;-83
2023/02/28 01:27:13;;;;;;;;;;;;;;;-1.21;nan;101509.25;4996348;28;19917;-84
2023/02/28 01:29:38;;;;;;;;;;;;;;;-1.22;nan;101510.13;5007843;28;19989;-83
2023/02/28 01:32:03;;;;;;;;;;;;;;;-1.21;nan;101511.00;4989867;28;20371;-84
2023/02/28 01:34:28;;;;;;;;;;;;;;;-1.23;nan;101497.22;5015748;28;19917;-84
2023/02/28 01:36:53;;;;;;;;;;;;;;;-1.25;nan;101501.63;4988045;28;20020;-84
2023/02/28 01:39:19;;;;;;;;;;;;;;;-1.23;nan;101511.03;5011252;28;19941;-84
2023/02/28 01:41:44;;;;;;;;;;;;;;;-1.22;nan;101511.88;4995118;28;19949;-85
2023/02/28 01:44:48;;;;;;;;;;;;;;;-1.26;nan;101513.75;5014535;28;19917;-84
2023/02/28 01:47:14;;;;;;;;;;;;;;;-1.32;nan;101512.19;4933044;29;19926;-83
2023/02/28 01:49:39;;;;;;;;;;;;;;;-1.36;nan;101508.03;4915465;29;19922;-84
2023/02/28 01:52:05;;;;;;;;;;;;;;;-1.39;nan;101510.72;4948905;28;20408;-83
2023/02/28 01:54:31;;;;;;;;;;;;;;;-1.38;nan;101504.63;4994768;28;19923;-84
2023/02/28 01:57:11;;;;;;;;;;;;;;;-1.36;nan;101502.84;4991073;28;19921;-84
2023/02/28 01:59:48;;;;;;;;;;;;;;;-1.40;nan;101503.00;4977584;28;19918;-83
2023/02/28 02:02:14;;;;;;;;;;;;;;;-1.43;nan;101500.47;5009133;28;19921;-84
2023/02/28 02:04:41;;;;;;;;;;;;;;;-1.44;nan;101502.22;4992681;28;19949;-84
2023/02/28 02:07:06;;;;;;;;;;;;;;;-1.44;nan;101502.22;4990805;28;19917;-83
2023/02/28 02:09:32;;;;;;;;;;;;;;;-1.45;nan;101497.09;5005508;28;19944;-84
2023/02/28 02:11:57;;;;;;;;;;;;;;;-1.44;nan;101494.44;5002331;28;19917;-84
2023/02/28 02:14:25;;;;;;;;;;;;;;;-1.46;nan;101495.41;5006959;28;19918;-83
2023/02/28 02:16:50;;;;;;;;;;;;;;;-1.45;nan;101494.50;4987545;28;19925;-82
2023/02/28 02:19:34;;;;;;;;;;;;;;;-1.46;nan;101495.41;4992531;28;19917;-84
2023/02/28 02:22:18;;;;;;;;;;;;;;;-1.52;nan;101488.69;5005772;28;19925;-84
2023/02/28 02:24:58;;;;;;;;;;;;;;;-1.51;nan;101491.22;5009712;28;19952;-84
2023/02/28 02:27:37;;;;;;;;;;;;;;;-1.53;nan;101495.59;5003059;28;19964;-84
2023/02/28 02:30:19;;;;;;;;;;;;;;;-1.50;nan;101490.31;4979684;28;19924;-84
2023/02/28 02:32:50;;;;;;;;;;;;;;;-1.54;nan;101488.72;5010185;28;19923;-84
2023/02/28 02:35:22;;;;;;;;;;;;;;;-1.56;nan;101487.06;5009686;28;19951;-85
2023/02/28 02:37:49;;;;;;;;;;;;;;;-1.62;nan;101485.53;4991403;28;19929;-83
2023/02/28 02:40:17;;;;;;;;;;;;;;;-1.64;nan;101489.09;5010986;28;20008;-83
2023/02/28 02:42:43;;;;;;;;;;;;;;;-1.67;nan;101486.56;5009660;28;19921;-84
2023/02/28 02:45:17;;;;;;;;;;;;;;;-1.74;nan;101483.31;5007314;28;19983;-83
2023/02/28 02:47:43;;;;;;;;;;;;;;;-1.80;nan;101497.34;5014053;28;20008;-84
2023/02/28 02:50:12;;;;;;;;;;;;;;;-1.78;nan;101485.19;4996073;28;19969;-84
2023/02/28 02:52:42;;;;;;;;;;;;;;;-1.80;nan;101497.34;5009392;28;20000;-83
2023/02/28 02:55:10;;;;;;;;;;;;;;;-1.77;nan;101491.22;5013824;28;19924;-84
2023/02/28 02:57:44;;;;;;;;;;;;;;;-1.75;nan;101485.06;4995105;28;19921;-84
2023/02/28 03:00:10;;;;;;;;;;;;;;;-1.69;nan;101494.41;5011735;28;19926;-84
2023/02/28 03:02:37;;;;;;;;;;;;;;;-1.72;nan;101492.78;5013216;28;19940;-83
2023/02/28 03:05:06;;;;;;;;;;;;;;;-1.75;nan;101503.22;5014267;28;19924;-84
2023/02/28 03:07:31;;;;;;;;;;;;;;;-1.77;nan;101493.81;4998895;28;19918;-84
2023/02/28 03:09:57;;;;;;;;;;;;;;;-1.72;nan;101491.91;5014038;28;19925;-84
2023/02/28 03:12:48;;;;;;;;;;;;;;;-1.71;nan;101486.69;4994081;28;20021;-83
2023/02/28 03:15:23;;;;;;;;;;;;;;;-1.69;nan;101491.84;5009822;28;19917;-84
2023/02/28 03:18:00;;;;;;;;;;;;;;;-1.72;nan;101481.53;5019122;28;20336;-84
2023/02/28 03:20:38;;;;;;;;;;;;;;;-1.75;nan;101481.66;5012815;28;19926;-83
2023/02/28 03:23:09;;;;;;;;;;;;;;;-1.80;nan;101478.34;5004916;28;19917;-84
2023/02/28 03:25:45;;;;;;;;;;;;;;;-1.78;nan;101479.16;5013210;28;19917;-83
2023/02/28 03:28:21;;;;;;;;;;;;;;;-1.76;nan;101478.22;4995508;28;19917;-83
2023/02/28 03:30:53;;;;;;;;;;;;;;;-1.81;nan;101474.03;5012593;28;19921;-83
2023/02/28 03:33:18;;;;;;;;;;;;;;;-1.76;nan;101488.59;4988515;28;19928;-83
2023/02/28 03:36:04;;;;;;;;;;;;;;;-1.74;nan;101480.72;5012943;28;20522;-83
2023/02/28 03:38:38;;;;;;;;;;;;;;;-1.75;nan;101481.66;4995519;28;19917;-84
2023/02/28 03:41:10;;;;;;;;;;;;;;;-1.74;nan;101483.31;5012438;28;19928;-83
2023/02/28 03:43:38;;;;;;;;;;;;;;;-1.77;nan;101479.09;5011196;28;19921;-84
2023/02/28 03:46:06;;;;;;;;;;;;;;;-1.81;nan;101485.28;5012394;28;20029;-85
2023/02/28 03:48:35;;;;;;;;;;;;;;;-1.82;nan;101472.38;4991065;28;19925;-85
2023/02/28 03:51:02;;;;;;;;;;;;;;;-1.84;nan;101474.16;5006172;28;19917;-85
2023/02/28 03:53:30;;;;;;;;;;;;;;;-1.86;nan;101481.13;4987298;28;19925;-84
2023/02/28 03:56:16;;;;;;;;;;;;;;;-1.88;nan;101482.91;5007436;28;19922;-84
2023/02/28 03:58:44;;;;;;;;;;;;;;;-1.90;nan;101482.16;4985183;28;19917;-85
2023/02/28 04:01:12;;;;;;;;;;;;;;;-1.86;nan;101482.00;5010042;28;19932;-87
2023/02/28 04:03:38;;;;;;;;;;;;;;;-1.89;nan;101486.41;5007817;28;20007;-85
2023/02/28 04:06:05;;;;;;;;;;;;;;;-1.92;nan;101483.03;4992605;28;19917;-86
2023/02/28 04:08:30;;;;;;;;;;;;;;;-1.96;nan;101489.19;4993770;28;19961;-84
2023/02/28 04:11:00;;;;;;;;;;;;;;;-1.99;nan;101484.13;4992515;28;19962;-85
2023/02/28 04:13:26;;;;;;;;;;;;;;;-1.99;nan;101483.28;4994333;28;19917;-84
2023/02/28 04:15:51;;;;;;;;;;;;;;;-2.02;nan;101481.63;4994357;28;19960;-84
2023/02/28 04:18:16;;;;;;;;;;;;;;;-2.05;nan;101484.31;4993456;28;19941;-84
2023/02/28 04:20:41;;;;;;;;;;;;;;;-2.08;nan;101483.56;5012218;28;19921;-84
2023/02/28 04:23:06;;;;;;;;;;;;;;;-2.06;nan;101485.19;4995829;28;19917;-85
2023/02/28 04:25:31;;;;;;;;;;;;;;;-2.07;nan;101487.81;5013344;28;20278;-85
2023/02/28 04:27:57;;;;;;;;;;;;;;;-2.09;nan;101489.66;4999333;28;19913;-86
2023/02/28 04:30:22;;;;;;;;;;;;;;;-2.11;nan;101489.69;4997247;28;19913;-85
2023/02/28 04:32:47;;;;;;;;;;;;;;;-2.13;nan;101494.91;4998285;28;19913;-85
2023/02/28 04:35:12;;;;;;;;;;;;;;;-2.13;nan;101487.13;4999666;28;20448;-85
2023/02/28 04:37:37;;;;;;;;;;;;;;;-2.12;nan;101488.00;5016852;28;19924;-85
2023/02/28 04:40:03;;;;;;;;;;;;;;;-2.17;nan;101493.31;4997362;28;19920;-84
2023/02/28 04:42:35;;;;;;;;;;;;;;;-2.22;nan;101487.41;4996551;28;19913;-84
2023/02/28 04:45:00;;;;;;;;;;;;;;;-2.22;nan;101489.16;5014725;28;19936;-85
2023/02/28 04:47:25;;;;;;;;;;;;;;;-2.16;nan;101488.97;4997045;28;19913;-85
2023/02/28 04:49:50;;;;;;;;;;;;;;;-2.14;nan;101487.19;5014655;28;19936;-86
2023/02/28 04:52:15;;;;;;;;;;;;;;;-2.15;nan;101482.88;4992734;28;19944;-86
2023/02/28 04:54:41;;;;;;;;;;;;;;;-2.11;nan;101478.47;4993951;28;19917;-85
2023/02/28 04:57:06;;;;;;;;;;;;;;;-2.18;nan;101483.81;4992161;28;19926;-84
2023/02/28 04:59:31;;;;;;;;;;;;;;;-2.17;nan;101482.94;4994284;28;19979;-85
2023/02/28 05:01:56;;;;;;;;;;;;;;;-2.21;nan;101486.53;4994174;28;19924;-85
2023/02/28 05:04:21;;;;;;;;;;;;;;;-2.22;nan;101486.56;4993221;28;19925;-86
2023/02/28 05:06:46;;;;;;;;;;;;;;;-2.23;nan;101493.50;4994604;28;19921;-85
2023/02/28 05:09:12;;;;;;;;;;;;;;;-2.23;nan;101492.66;4992887;28;20525;-86
2023/02/28 05:11:38;;;;;;;;;;;;;;;-2.22;nan;101497.75;4993562;28;20551;-86
2023/02/28 05:14:04;;;;;;;;;;;;;;;-2.21;nan;101488.28;4994020;28;19917;-86
2023/02/28 05:16:30;;;;;;;;;;;;;;;-2.20;nan;101502.91;4995676;28;19921;-85
2023/02/28 05:18:56;;;;;;;;;;;;;;;-2.18;nan;101501.13;4997958;28;19925;-85
2023/02/28 05:21:24;;;;;;;;;;;;;;;-2.14;nan;101498.41;5014699;28;20355;-85
2023/02/28 05:23:49;;;;;;;;;;;;;;;-2.10;nan;101511.25;4997043;28;20028;-84
2023/02/28 05:26:14;;;;;;;;;;;;;;;-2.06;nan;101507.69;4987481;28;19930;-85
2023/02/28 05:28:39;;;;;;;;;;;;;;;-2.09;nan;101502.59;4997069;28;19921;-85
2023/02/28 05:31:04;;;;;;;;;;;;;;;-2.06;nan;101495.56;4996779;28;19983;-85
2023/02/28 05:33:30;;;;;;;;;;;;;;;-2.08;nan;101499.94;4996809;28;19913;-85
2023/02/28 05:35:55;;;;;;;;;;;;;;;-2.06;nan;101505.94;4992916;28;20338;-85
2023/02/28 05:38:20;;;;;;;;;;;;;;;-2.03;nan;101504.97;4997833;28;19917;-85
2023/02/28 05:40:45;;;;;;;;;;;;;;;-1.98;nan;101498.78;4995264;28;20000;-85
2023/02/28 05:43:11;;;;;;;;;;;;;;;-1.97;nan;101495.28;4989700;28;19918;-84
2023/02/28 05:45:36;;;;;;;;;;;;;;;-2.00;nan;101500.56;4995750;28;19935;-85
2023/02/28 05:48:02;;;;;;;;;;;;;;;-2.00;nan;101510.06;5013506;28;20052;-85
2023/02/28 05:50:27;;;;;;;;;;;;;;;-2.01;nan;101508.38;4994625;28;19953;-84
2023/02/28 05:52:52;;;;;;;;;;;;;;;-2.06;nan;101508.53;4994954;28;19988;-85
2023/02/28 05:55:18;;;;;;;;;;;;;;;-2.09;nan;101506.03;4995304;28;20479;-85
2023/02/28 05:57:43;;;;;;;;;;;;;;;-2.17;nan;101502.81;5013148;28;19917;-85
2023/02/28 06:00:09;;;;;;;;;;;;;;;-2.24;nan;101501.28;5012392;28;19952;-85
2023/02/28 06:02:34;;;;;;;;;;;;;;;-2.28;nan;101507.47;5013596;28;19913;-84
2023/02/28 06:04:59;;;;;;;;;;;;;;;-2.37;nan;101503.41;5013371;28;20309;-85
2023/02/28 06:07:24;;;;;;;;;;;;;;;-2.42;nan;101507.88;4994696;28;19932;-85
2023/02/28 06:09:49;;;;;;;;;;;;;;;-2.44;nan;101509.66;4991666;28;19960;-85
2023/02/28 06:12:15;;;;;;;;;;;;;;;-2.44;nan;101515.69;4996578;28;19913;-85
2023/02/28 06:14:40;;;;;;;;;;;;;;;-2.37;nan;101509.44;4998041;28;19913;-85
2023/02/28 06:17:05;;;;;;;;;;;;;;;-2.28;nan;101507.47;4998464;28;20555;-85
2023/02/28 06:19:31;;;;;;;;;;;;;;;-2.20;nan;101503.75;5017736;28;19917;-85
2023/02/28 06:21:56;;;;;;;;;;;;;;;-2.19;nan;101499.44;5001888;28;19913;-85
2023/02/28 06:24:22;;;;;;;;;;;;;;;-2.13;nan;101515.63;5020142;28;19944;-85
2023/02/28 06:26:48;;;;;;;;;;;;;;;-2.09;nan;101511.22;5019704;28;19913;-84
2023/02/28 06:29:16;;;;;;;;;;;;;;;-2.10;nan;101514.69;5001383;28;20044;-85
2023/02/28 06:31:42;;;;;;;;;;;;;;;-2.05;nan;101517.13;5001385;28;19913;-84
2023/02/28 06:34:07;;;;;;;;;;;;;;;-2.00;nan;101520.44;5001333;28;20382;-83
2023/02/28 06:36:32;;;;;;;;;;;;;;;-1.89;nan;101517.53;5001495;28;19917;-86
2023/02/28 06:38:57;;;;;;;;;;;;;;;-1.86;nan;101515.69;4999578;28;19913;-85
2023/02/28 06:41:25;;;;;;;;;;;;;;;-1.76;nan;101524.03;5018144;28;19924;-85
2023/02/28 06:43:50;;;;;;;;;;;;;;;-1.73;nan;101529.13;5000380;28;20551;-84
2023/02/28 06:46:15;;;;;;;;;;;;;;;-1.68;nan;101516.84;5017150;28;19920;-85
2023/02/28 06:48:41;;;;;;;;;;;;;;;-1.60;nan;101520.03;4996814;28;19917;-85
2023/02/28 06:51:11;;;;;;;;;;;;;;;-1.41;nan;101525.47;4998626;28;20295;-86
2023/02/28 06:53:36;;;;;;;;;;;;;;;-1.36;nan;101526.19;5014974;28;19944;-86
2023/02/28 06:56:06;;;;;;;;;;;;;;;-1.23;nan;101536.16;4997242;28;20373;-85
2023/02/28 06:58:31;;;;;;;;;;;;;;;-1.11;nan;101528.78;4996078;28;19917;-85
2023/02/28 07:00:56;;;;;;;;;;;;;;;-0.99;nan;101537.06;4994311;28;19967;-86
2023/02/28 07:03:21;;;;;;;;;;;;;;;-0.91;nan;101538.47;5011923;28;20347;-88
2023/02/28 07:05:46;;;;;;;;;;;;;;;-0.79;nan;101538.97;4996128;28;19921;-88
2023/02/28 07:08:12;;;;;;;;;;;;;;;-0.71;nan;101539.56;4991531;28;20001;-87
2023/02/28 07:10:37;;;;;;;;;;;;;;;-0.55;nan;101545.03;4994088;28;19987;-87
2023/02/28 07:13:03;;;;;;;;;;;;;;;-0.56;nan;101544.19;4989905;28;19921;-86
2023/02/28 07:15:28;;;;;;;;;;;;;;;-0.20;nan;101545.50;4998494;28;19928;-84
2023/02/28 07:17:54;;;;;;;;;;;;;;;0.15;nan;101547.59;4995369;28;19921;-86
2023/02/28 07:20:19;;;;;;;;;;;;;;;0.74;nan;101547.84;4994613;28;19917;-84
2023/02/28 07:22:44;;;;;;;;;;;;;;;1.18;nan;101539.91;5006527;28;19932;-87
2023/02/28 07:25:09;;;;;;;;;;;;;;;1.57;nan;101545.13;5006753;28;19925;-87
2023/02/28 07:27:34;;;;;;;;;;;;;;;1.93;nan;101549.56;5018321;28;20299;-84
2023/02/28 07:30:03;;;;;;;;;;;;;;;2.41;nan;101547.31;5003049;28;20011;-85
2023/02/28 07:32:28;;;;;;;;;;;;;;;2.81;nan;101561.88;5004233;28;20330;-84
2023/02/28 07:34:54;;;;;;;;;;;;;;;2.67;nan;101552.16;4993369;28;19955;-85
2023/02/28 07:37:19;;;;;;;;;;;;;;;3.03;nan;101563.41;4992727;28;20013;-84
2023/02/28 07:39:44;;;;;;;;;;;;;;;3.38;nan;101557.25;4994142;28;19924;-85
2023/02/28 07:42:11;;;;;;;;;;;;;;;2.82;nan;101560.97;4989402;28;19955;-86
2023/02/28 07:44:40;;;;;;;;;;;;;;;3.07;nan;101557.97;5009028;28;20422;-86
2023/02/28 07:47:05;;;;;;;;;;;;;;;2.18;nan;101557.09;5010453;28;20418;-83
2023/02/28 07:49:31;;;;;;;;;;;;;;;1.95;nan;101552.97;5008389;28;19924;-83
2023/02/28 07:51:57;;;;;;;;;;;;;;;2.02;nan;101556.97;4985518;28;19933;-83
2023/02/28 07:54:22;;;;;;;;;;;;;;;1.99;nan;101556.28;4989942;28;19917;-84
2023/02/28 07:56:47;;;;;;;;;;;;;;;1.72;nan;101548.81;4991589;28;19948;-81
2023/02/28 07:59:12;;;;;;;;;;;;;;;1.69;nan;101555.00;4993755;28;19918;-84
2023/02/28 08:01:37;;;;;;;;;;;;;;;1.51;nan;101560.22;4993917;28;19918;-85
2023/02/28 08:04:03;;;;;;;;;;;;;;;1.35;nan;101562.63;5008675;28;19964;-84
2023/02/28 08:06:28;;;;;;;;;;;;;;;1.50;nan;101569.75;4992334;28;19918;-83
2023/02/28 08:08:53;;;;;;;;;;;;;;;1.38;nan;101565.97;5009596;28;19918;-83
2023/02/28 08:11:19;;;;;;;;;;;;;;;1.31;nan;101563.66;5010451;28;19960;-82
2023/02/28 08:13:45;;;;;;;;;;;;;;;1.15;nan;101574.75;5016079;28;20365;-84
2023/02/28 08:16:10;;;;;;;;;;;;;;;1.21;nan;101576.25;4996996;28;20016;-82
2023/02/28 08:18:36;;;;;;;;;;;;;;;1.13;nan;101570.53;4996575;28;19960;-85
2023/02/28 08:21:08;;;;;;;;;;;;;;;1.18;nan;101566.81;4994221;28;19918;-84
2023/02/28 08:23:33;;;;;;;;;;;;;;;1.11;nan;101561.94;4996515;28;19921;-84
2023/02/28 08:25:58;;;;;;;;;;;;;;;1.15;nan;101559.13;4994727;28;20283;-83
2023/02/28 08:28:23;;;;;;;;;;;;;;;1.18;nan;101555.53;5007912;28;19936;-84
2023/02/28 08:30:49;;;;;;;;;;;;;;;1.25;nan;101554.38;4990549;28;19917;-83
2023/02/28 08:33:14;;;;;;;;;;;;;;;1.30;nan;101552.41;4994374;28;19921;-84
2023/02/28 08:35:39;;;;;;;;;;;;;;;1.31;nan;101550.63;4995117;28;19917;-84
2023/02/28 08:38:04;;;;;;;;;;;;;;;1.39;nan;101556.38;5013570;28;19930;-84
2023/02/28 08:40:29;;;;;;;;;;;;;;;1.48;nan;101558.59;5012504;28;19917;-86
2023/02/28 08:42:54;;;;;;;;;;;;;;;1.66;nan;101555.13;5015749;28;20022;-85
2023/02/28 08:45:20;;;;;;;;;;;;;;;1.78;nan;101548.53;5016025;28;19997;-85
2023/02/28 08:47:45;;;;;;;;;;;;;;;2.18;nan;101557.09;5014161;28;19995;-84
2023/02/28 08:50:10;;;;;;;;;;;;;;;2.83;nan;101549.59;5011379;28;19917;-84
2023/02/28 08:52:35;;;;;;;;;;;;;;;3.49;nan;101553.22;5008358;28;19960;-83
2023/02/28 08:55:01;;;;;;;;;;;;;;;4.21;nan;101555.38;5007713;28;19917;-83
2023/02/28 08:57:26;;;;;;;;;;;;;;;4.76;nan;101545.31;4990574;28;20291;-83
2023/02/28 08:59:52;;;;;;;;;;;;;;;4.94;nan;101544.25;4990642;28;20329;-84
2023/02/28 09:02:17;;;;;;;;;;;;;;;5.39;nan;101542.44;4986871;28;19921;-83
2023/02/28 09:04:45;;;;;;;;;;;;;;;5.78;nan;101547.94;5007718;28;20398;-84
2023/02/28 09:07:10;;;;;;;;;;;;;;;6.40;nan;101555.44;4992049;28;20004;-84
2023/02/28 09:09:35;;;;;;;;;;;;;;;6.52;nan;101549.38;5008022;28;20591;-85
2023/02/28 09:12:01;;;;;;;;;;;;;;;7.16;nan;101555.59;5011341;28;20016;-84
2023/02/28 09:14:27;;;;;;;;;;;;;;;7.39;nan;101547.94;4991281;28;19929;-85
2023/02/28 09:16:52;;;;;;;;;;;;;;;7.16;nan;101552.13;4991241;28;20425;-84
2023/02/28 09:19:17;;;;;;;;;;;;;;;7.81;nan;101553.75;4990306;28;19925;-84
2023/02/28 09:21:42;;;;;;;;;;;;;;;8.20;nan;101557.13;5010842;28;19917;-85
2023/02/28 09:24:07;;;;;;;;;;;;;;;7.62;nan;101549.78;4992202;28;19943;-85
2023/02/28 09:26:37;;;;;;;;;;;;;;;6.04;nan;101560.31;5010320;28;19928;-86
2023/02/28 09:29:02;;;;;;;;;;;;;;;6.07;nan;101548.78;4990363;28;20025;-86
2023/02/28 09:31:28;;;;;;;;;;;;;;;5.52;nan;101550.41;5009591;28;20005;-84
2023/02/28 09:33:54;;;;;;;;;;;;;;;6.26;nan;101549.28;5009250;28;20342;-83
2023/02/28 09:36:20;;;;;;;;;;;;;;;6.08;nan;101546.06;5009921;28;20314;-83
2023/02/28 09:38:46;;;;;;;;;;;;;;;5.74;nan;101537.66;4990524;28;19925;-85
2023/02/28 09:41:16;;;;;;;;;;;;;;;5.38;nan;101545.16;5008898;28;20016;-83
2023/02/28 09:43:44;;;;;;;;;;;;;;;4.49;nan;101547.78;4989818;28;20432;-82
2023/02/28 09:46:28;;;;;;;;;;;;;;;4.64;nan;101539.00;4989118;28;19925;-83
2023/02/28 09:48:55;;;;;;;;;;;;;;;4.34;nan;101539.84;4991193;28;20294;-84
2023/02/28 09:51:33;;;;;;;;;;;;;;;4.22;nan;101541.38;4989869;28;19917;-86
2023/02/28 09:53:58;;;;;;;;;;;;;;;4.03;nan;101546.78;4990858;28;19950;-83
2023/02/28 09:56:27;;;;;;;;;;;;;;;3.92;nan;101537.84;5014631;28;19956;-84
2023/02/28 09:58:58;;;;;;;;;;;;;;;3.90;nan;101544.94;4997301;28;19917;-83
2023/02/28 10:01:43;;;;;;;;;;;;;;;3.81;nan;101539.28;5014747;28;19917;-85
2023/02/28 10:04:24;;;;;;;;;;;;;;;3.66;nan;101544.47;4995984;28;19957;-84
2023/02/28 10:06:50;;;;;;;;;;;;;;;3.49;nan;101538.38;4995559;28;20007;-84
2023/02/28 10:09:22;;;;;;;;;;;;;;;3.69;nan;101541.69;5014078;28;19961;-84
2023/02/28 10:11:49;;;;;;;;;;;;;;;3.58;nan;101548.34;5016303;28;19923;-84
2023/02/28 10:14:14;;;;;;;;;;;;;;;3.07;nan;101539.66;4996097;28;19924;-85
2023/02/28 10:16:44;;;;;;;;;;;;;;;3.39;nan;101537.19;5013077;28;20004;-85
2023/02/28 10:19:14;;;;;;;;;;;;;;;3.25;nan;101544.91;5023604;28;19917;-85
2023/02/28 10:21:47;;;;;;;;;;;;;;;3.38;nan;101544.19;5017971;28;19983;-85
2023/02/28 10:24:15;;;;;;;;;;;;;;;3.85;nan;101539.94;5012027;28;19963;-85
2023/02/28 10:26:42;;;;;;;;;;;;;;;5.33;nan;101542.81;4997037;28;19971;-84
2023/02/28 10:29:08;;;;;;;;;;;;;;;6.59;nan;101548.88;4995733;28;20286;-85
2023/02/28 10:31:34;;;;;;;;;;;;;;;7.62;nan;101546.31;5014818;28;19922;-86
2023/02/28 10:34:00;;;;;;;;;;;;;;;7.47;nan;101544.75;5015705;28;20000;-84
2023/02/28 10:36:25;;;;;;;;;;;;;;;8.57;nan;101546.56;5015321;28;20375;-84
2023/02/28 10:38:50;;;;;;;;;;;;;;;9.31;nan;101544.47;4997011;28;19957;-85
2023/02/28 10:41:17;;;;;;;;;;;;;;;9.40;nan;101540.28;4995253;28;19975;-85
2023/02/28 10:43:43;;;;;;;;;;;;;;;9.46;nan;101542.44;5013194;28;19932;-85
2023/02/28 10:46:08;;;;;;;;;;;;;;;9.94;nan;101536.91;4996245;28;19913;-85
2023/02/28 10:48:35;;;;;;;;;;;;;;;10.81;nan;101542.16;4998694;28;19924;-85
2023/02/28 10:51:03;;;;;;;;;;;;;;;11.13;nan;101535.94;5014817;28;19917;-85
2023/02/28 10:53:46;;;;;;;;;;;;;;;10.46;nan;101531.84;4997499;28;20387;-85
2023/02/28 10:56:12;;;;;;;;;;;;;;;10.13;nan;101529.16;4996943;28;19972;-85
2023/02/28 10:58:56;;;;;;;;;;;;;;;9.97;nan;101537.47;4993265;28;20291;-85
2023/02/28 11:01:21;;;;;;;;;;;;;;;9.12;nan;101537.13;4995410;28;19939;-85
2023/02/28 11:03:46;;;;;;;;;;;;;;;7.76;nan;101532.19;5009588;28;20006;-85
2023/02/28 11:06:32;;;;;;;;;;;;;;;7.62;nan;101533.97;4995679;28;20221;-86
2023/02/28 11:09:03;;;;;;;;;;;;;;;6.77;nan;101538.09;5012601;28;19921;-84
2023/02/28 11:11:31;;;;;;;;;;;;;;;6.95;nan;101536.00;4996263;28;19932;-85
2023/02/28 11:14:02;;;;;;;;;;;;;;;6.82;nan;101536.00;5009417;28;19918;-84
2023/02/28 11:16:35;;;;;;;;;;;;;;;6.98;nan;101531.41;4994304;28;20024;-85
2023/02/28 11:19:01;;;;;;;;;;;;;;;6.76;nan;101544.28;5012060;28;19925;-84
2023/02/28 11:21:28;;;;;;;;;;;;;;;6.11;nan;101535.34;4993563;28;19968;-83
2023/02/28 11:24:17;;;;;;;;;;;;;;;6.70;nan;101536.81;4996266;28;19927;-84
2023/02/28 11:26:43;;;;;;;;;;;;;;;6.78;nan;101530.09;5013015;28;19932;-84
2023/02/28 11:29:18;;;;;;;;;;;;;;;6.86;nan;101531.38;4994027;28;19932;-84
2023/02/28 11:31:47;;;;;;;;;;;;;;;6.31;nan;101531.44;5009187;28;20323;-85
2023/02/28 11:34:25;;;;;;;;;;;;;;;7.74;nan;101527.00;4992972;28;19918;-85
2023/02/28 11:36:51;;;;;;;;;;;;;;;7.74;nan;101521.75;4991824;28;19928;-85
2023/02/28 11:39:17;;;;;;;;;;;;;;;7.85;nan;101531.53;4995611;28;19921;-85
2023/02/28 11:41:45;;;;;;;;;;;;;;;7.90;nan;101518.88;4992159;28;19926;-84
2023/02/28 11:44:16;;;;;;;;;;;;;;;7.80;nan;101518.69;5009104;28;19917;-84
2023/02/28 11:47:00;;;;;;;;;;;;;;;8.07;nan;101515.03;4991898;28;19917;-84
2023/02/28 11:49:38;;;;;;;;;;;;;;;8.35;nan;101516.50;4993731;28;19940;-84
2023/02/28 11:52:19;;;;;;;;;;;;;;;8.14;nan;101510.16;5006971;28;19941;-85
2023/02/28 11:54:47;;;;;;;;;;;;;;;8.32;nan;101511.44;5009568;28;20075;-84
2023/02/28 11:57:23;;;;;;;;;;;;;;;7.94;nan;101503.72;5012552;28;19921;-85
2023/02/28 12:00:15;;;;;;;;;;;;;;;7.66;nan;101500.41;4989308;28;19922;-85
2023/02/28 12:03:07;;;;;;;;;;;;;;;7.41;nan;101510.03;4966649;28;19917;-85
2023/02/28 12:05:38;;;;;;;;;;;;;;;7.28;nan;101508.34;4969825;28;19983;-84
2023/02/28 12:08:20;;;;;;;;;;;;;;;7.34;nan;101500.03;4995059;28;19917;-85
2023/02/28 12:11:01;;;;;;;;;;;;;;;7.12;nan;101501.50;5004019;28;20012;-85
2023/02/28 12:13:31;;;;;;;;;;;;;;;7.26;nan;101495.31;5010711;28;19944;-84
2023/02/28 12:16:09;;;;;;;;;;;;;;;6.79;nan;101504.63;4993579;28;19945;-86
2023/02/28 12:18:47;;;;;;;;;;;;;;;6.90;nan;101499.50;5005516;28;19926;-84
2023/02/28 12:21:20;;;;;;;;;;;;;;;6.59;nan;101500.72;5009587;28;19917;-85
2023/02/28 12:24:00;;;;;;;;;;;;;;;6.23;nan;101496.94;5009271;28;20316;-86
2023/02/28 12:26:52;;;;;;;;;;;;;;;6.26;nan;101506.41;4988010;28;25587;-85
2023/02/28 12:29:28;;;;;;;;;;;;;;;6.16;nan;101491.25;5004458;28;19936;-86
2023/02/28 12:32:12;;;;;;;;;;;;;;;6.01;nan;101484.38;4987947;28;19925;-86
2023/02/28 12:34:41;;;;;;;;;;;;;;;5.99;nan;101491.50;4993778;28;19941;-86
2023/02/28 12:37:15;;;;;;;;;;;;;;;5.75;nan;101480.75;4992486;28;19925;-85
2023/02/28 12:39:45;;;;;;;;;;;;;;;5.86;nan;101487.94;5006784;28;19988;-85
2023/02/28 12:42:14;;;;;;;;;;;;;;;6.12;nan;101494.16;4982134;28;19933;-85
2023/02/28 12:44:46;;;;;;;;;;;;;;;6.14;nan;101495.75;4991513;28;19918;-85
2023/02/28 12:47:18;;;;;;;;;;;;;;;6.09;nan;101495.22;5008267;28;19924;-85
2023/02/28 12:49:58;;;;;;;;;;;;;;;5.94;nan;101490.97;5003555;28;20003;-85
2023/02/28 12:52:43;;;;;;;;;;;;;;;5.46;nan;101485.22;4990572;28;19961;-85
2023/02/28 12:55:15;;;;;;;;;;;;;;;5.53;nan;101487.34;5006774;28;20321;-85
2023/02/28 12:57:46;;;;;;;;;;;;;;;5.64;nan;101493.69;5008704;28;19921;-85
2023/02/28 13:00:33;;;;;;;;;;;;;;;5.80;nan;101483.94;4993295;28;20460;-83
2023/02/28 13:03:14;;;;;;;;;;;;;;;5.89;nan;101493.84;4998580;28;19921;-84
2023/02/28 13:05:54;;;;;;;;;;;;;;;5.55;nan;101479.38;5009424;28;20696;-85
2023/02/28 13:08:19;;;;;;;;;;;;;;;5.33;nan;101480.69;4990469;28;19917;-84
2023/02/28 13:10:54;;;;;;;;;;;;;;;5.31;nan;101482.59;5014056;28;19925;-84